Motion Scan — PCNB — position and weather

sailwx.info

Track history (hours):
 
Tides and Currents Weather Stations Pressure Air Temp Water Temp Dewpoint Dewpoint Depression Visibility Wind Speed Wind Dir Waves Ship Positions

Motion Scan

Last reported at 2015-Jul-06 19:31 UTC. Time now 2015-Jul-06 19:55 UTC.
Position N 54°02' E 008°12'.

Length 116 m; draft 5.2 m.

Type: Cargo ship. MMSI: 245523000.

Date/timePositionNaut miles runAvg speedWind from/ knotsBaromVisibWave heightAir tempDewpointWater temp
2015-Jul-06 19:31N 54°02' E 008°12'0 0.0
2015-Jul-06 18:31N 54°02' E 008°11'0 0.0
2015-Jul-06 17:31N 54°02' E 008°11'0 0.2
2015-Jul-06 16:31N 54°02' E 008°12'0 0.1
2015-Jul-06 15:31N 54°02' E 008°12'0 0.0
2015-Jul-06 14:31N 54°02' E 008°12'0 0.0
2015-Jul-06 13:31N 54°02' E 008°12'0 0.0
2015-Jul-06 12:28N 54°02' E 008°12'0 0.0
2015-Jul-06 11:28N 54°02' E 008°12'0 0.0
2015-Jul-06 10:22N 54°02' E 008°12'0 0.0
2015-Jul-06 09:25N 54°02' E 008°12'0 0.0
2015-Jul-06 08:31N 54°02' E 008°12'0 0.1
2015-Jul-06 07:31N 54°02' E 008°12'0 0.1
2015-Jul-06 06:19N 54°02' E 008°11'0 0.2
2015-Jul-06 05:31N 54°02' E 008°12'0 0.1
2015-Jul-06 04:31N 54°02' E 008°12'0 0.0
2015-Jul-06 03:31N 54°02' E 008°12'0 0.0
2015-Jul-06 02:31N 54°02' E 008°12'0 0.1
2015-Jul-06 01:31N 54°02' E 008°12'0 0.0
2015-Jul-06 00:31N 54°02' E 008°12'0 0.0
2015-Jul-05 23:31N 54°02' E 008°12'0 0.0
2015-Jul-05 22:31N 54°02' E 008°12'0 0.1
2015-Jul-05 21:31N 54°02' E 008°12'0 0.0
2015-Jul-05 20:28N 54°02' E 008°12'0 0.1
2015-Jul-05 19:31N 54°02' E 008°11'0 0.0
2015-Jul-05 18:31N 54°02' E 008°11'0 0.0
2015-Jul-05 17:31N 54°02' E 008°11'0 0.0
2015-Jul-05 16:31N 54°02' E 008°11'0 0.0
2015-Jul-05 15:31N 54°02' E 008°11'0 0.1
2015-Jul-05 14:31N 54°02' E 008°12'0 0.2
2015-Jul-05 13:28N 54°02' E 008°12'0 0.0
2015-Jul-05 12:31N 54°02' E 008°12'0 0.0
2015-Jul-05 11:31N 54°02' E 008°12'0 0.0
2015-Jul-05 10:31N 54°02' E 008°12'0 0.0
2015-Jul-05 09:28N 54°02' E 008°12'0 0.1
2015-Jul-05 08:31N 54°02' E 008°12'0 0.0
2015-Jul-05 07:31N 54°02' E 008°12'0 0.0
2015-Jul-05 06:31N 54°02' E 008°12'0 0.0
2015-Jul-05 05:31N 54°02' E 008°12'0 0.0
2015-Jul-05 04:31N 54°02' E 008°12'0 0.0
2015-Jul-05 03:28N 54°02' E 008°12'0 0.0
2015-Jul-05 02:31N 54°02' E 008°12'0 0.0
2015-Jul-05 01:31N 54°02' E 008°12'0 0.1
2015-Jul-05 00:31N 54°02' E 008°12'5 5.6
2015-Jul-04 23:33N 53°60' E 008°20'1010.5
2015-Jul-04 22:33N 53°57' E 008°37'1211.6
2015-Jul-04 21:33N 53°51' E 008°53'1414.0
2015-Jul-04 20:34N 53°52' E 009°17'1515.2
2015-Jul-04 19:33N 53°40' E 009°31'1413.8
2015-Jul-04 18:34N 53°33' E 009°51'5 4.7
2015-Jul-04 17:31N 53°32' E 009°59'0 0.0
2015-Jul-04 16:31N 53°32' E 009°59'0 0.0
2015-Jul-04 15:31N 53°32' E 009°59'0 0.0
2015-Jul-04 14:31N 53°32' E 009°59'0 0.0
2015-Jul-04 13:31N 53°32' E 009°59'0 0.0
2015-Jul-04 12:31N 53°32' E 009°59'0 0.0
2015-Jul-04 11:31N 53°32' E 009°59'0 0.0
2015-Jul-04 10:31N 53°32' E 009°59'0 0.0
2015-Jul-04 09:25N 53°32' E 009°59'0 0.0
2015-Jul-04 08:26N 53°32' E 009°59'0 0.0
2015-Jul-04 06:29N 53°32' E 009°59'0 0.0
2015-Jul-03 21:33N 53°32' E 009°59'6 5.8
2015-Jul-03 20:33N 53°33' E 009°50'1010.1
2015-Jul-03 19:33N 53°37' E 009°34'7 6.9
2015-Jul-03 18:34N 53°43' E 009°29'10 9.9
2015-Jul-03 17:33N 53°51' E 009°19'6 6.5
2015-Jul-03 16:33N 53°54' E 009°09'5 5.1
2015-Jul-03 15:33N 53°57' E 009°15'9 8.5
2015-Jul-03 14:33N 54°05' E 009°20'7 6.5
2015-Jul-03 13:31N 54°11' E 009°27'18 6.0
2015-Jul-03 10:33N 54°22' E 009°51'6 5.5
2015-Jul-03 09:33N 54°21' E 010°00'5 4.8
2015-Jul-03 08:33N 54°22' E 010°08'4 4.2
2015-Jul-03 07:33N 54°25' E 010°13'1211.8
2015-Jul-03 06:33N 54°33' E 010°29'1312.9
2015-Jul-03 05:33N 54°35' E 010°51'1413.9
2015-Jul-03 04:33N 54°35' E 011°14'1413.9
2015-Jul-03 03:33N 54°29' E 011°36'1313.3
2015-Jul-03 02:33N 54°27' E 011°59'1111.4
2015-Jul-03 01:33N 54°35' E 012°13'1312.7
2015-Jul-03 00:33N 54°43' E 012°30'1313.4
2015-Jul-02 23:33N 54°49' E 012°50'1313.3
2015-Jul-02 22:33N 54°53' E 013°12'1313.3
2015-Jul-02 21:33N 54°58' E 013°34'1313.4
2015-Jul-02 20:33N 55°02' E 013°56'1312.8
2015-Jul-02 19:33N 55°10' E 014°13'1313.4
2015-Jul-02 18:33N 55°21' E 014°28'1313.2
2015-Jul-02 17:33N 55°30' E 014°45'1313.4
2015-Jul-02 16:33N 55°36' E 015°06'1413.5
2015-Jul-02 15:33N 55°43' E 015°26'1313.2
2015-Jul-02 14:33N 55°50' E 015°47'1313.2
2015-Jul-02 13:33N 55°56' E 016°07'1413.4
2015-Jul-02 12:33N 56°03' E 016°28'1313.1
2015-Jul-02 11:33N 56°12' E 016°45'1313.2
2015-Jul-02 10:33N 56°24' E 016°54'4213.2
2015-Jul-02 07:23N 57°03' E 017°22'1213.3
2015-Jul-02 06:30N 57°14' E 017°30'1213.2
2015-Jul-02 05:33N 57°26' E 017°38'7212.0
2015-Jul-01 23:33N 58°37' E 017°14'1313.0
2015-Jul-01 22:33N 58°37' E 016°49'1312.7
2015-Jul-01 21:33N 58°39' E 016°25'5 0.1
2015-Jun-30 03:33N 58°38' E 016°17'1111.1
2015-Jun-30 02:33N 58°38' E 016°38'56 1.2
2015-Jun-28 05:13N 57°54' E 017°43'913.4
2015-Jun-28 04:33N 57°45' E 017°45'1313.2
2015-Jun-28 03:33N 57°32' E 017°47'1312.9
2015-Jun-28 02:33N 57°19' E 017°42'1313.2
2015-Jun-28 01:33N 57°07' E 017°33'9312.6
2015-Jun-27 18:10N 55°49' E 016°00'813.1
2015-Jun-27 17:33N 55°46' E 015°48'1313.4
2015-Jun-27 16:33N 55°39' E 015°27'1313.4
2015-Jun-27 15:33N 55°33' E 015°06'1313.0
2015-Jun-27 14:33N 55°27' E 014°46'1312.9
2015-Jun-27 13:31N 55°18' E 014°29'1212.6
2015-Jun-27 12:33N 55°10' E 014°12'2713.0
2015-Jun-27 10:28N 55°12' E 013°25'1213.3
2015-Jun-27 09:33N 55°14' E 013°04'1313.1
2015-Jun-27 08:33N 55°17' E 012°42'1111.2
2015-Jun-27 07:33N 55°28' E 012°41'1111.0
2015-Jun-27 06:33N 55°39' E 012°41'1110.7
2015-Jun-27 05:33N 55°50' E 012°41'1111.2
2015-Jun-27 04:33N 56°01' E 012°40'1211.5
2015-Jun-27 03:33N 56°09' E 012°25'1313.2
2015-Jun-27 02:33N 56°17' E 012°05'1313.4
2015-Jun-27 01:33N 56°30' E 011°58'1313.3
2015-Jun-27 00:33N 56°42' E 011°53'1413.6
2015-Jun-26 23:33N 56°55' E 011°45'1313.2
2015-Jun-26 22:33N 57°08' E 011°36'1312.7
2015-Jun-26 21:33N 57°19' E 011°28'1211.9
2015-Jun-26 20:33N 57°30' E 011°16'1313.0
2015-Jun-26 19:34N 57°37' E 010°56'  
Track history (hours):
 
Tides and Currents Weather Stations Pressure Air Temp Water Temp Dewpoint Dewpoint Depression Visibility Wind Speed Wind Dir Waves Ship Positions

Motion Scan

Last reported at 2015-Jul-06 19:31 UTC. Time now 2015-Jul-06 19:55 UTC.
Position N 54°02' E 008°12'.

Length 116 m; draft 5.2 m.

Type: Cargo ship. MMSI: 245523000.

Date/timePositionNaut miles runAvg speedWind from/ knotsBaromVisibWave heightAir tempDewpointWater temp
2015-Jul-06 19:31N 54°02' E 008°12'0 0.0
2015-Jul-06 18:31N 54°02' E 008°11'0 0.0
2015-Jul-06 17:31N 54°02' E 008°11'0 0.2
2015-Jul-06 16:31N 54°02' E 008°12'0 0.1
2015-Jul-06 15:31N 54°02' E 008°12'0 0.0
2015-Jul-06 14:31N 54°02' E 008°12'0 0.0
2015-Jul-06 13:31N 54°02' E 008°12'0 0.0
2015-Jul-06 12:28N 54°02' E 008°12'0 0.0
2015-Jul-06 11:28N 54°02' E 008°12'0 0.0
2015-Jul-06 10:22N 54°02' E 008°12'0 0.0
2015-Jul-06 09:25N 54°02' E 008°12'0 0.0
2015-Jul-06 08:31N 54°02' E 008°12'0 0.1
2015-Jul-06 07:31N 54°02' E 008°12'0 0.1
2015-Jul-06 06:19N 54°02' E 008°11'0 0.2
2015-Jul-06 05:31N 54°02' E 008°12'0 0.1
2015-Jul-06 04:31N 54°02' E 008°12'0 0.0
2015-Jul-06 03:31N 54°02' E 008°12'0 0.0
2015-Jul-06 02:31N 54°02' E 008°12'0 0.1
2015-Jul-06 01:31N 54°02' E 008°12'0 0.0
2015-Jul-06 00:31N 54°02' E 008°12'0 0.0
2015-Jul-05 23:31N 54°02' E 008°12'0 0.0
2015-Jul-05 22:31N 54°02' E 008°12'0 0.1
2015-Jul-05 21:31N 54°02' E 008°12'0 0.0
2015-Jul-05 20:28N 54°02' E 008°12'0 0.1
2015-Jul-05 19:31N 54°02' E 008°11'0 0.0
2015-Jul-05 18:31N 54°02' E 008°11'0 0.0
2015-Jul-05 17:31N 54°02' E 008°11'0 0.0
2015-Jul-05 16:31N 54°02' E 008°11'0 0.0
2015-Jul-05 15:31N 54°02' E 008°11'0 0.1
2015-Jul-05 14:31N 54°02' E 008°12'0 0.2
2015-Jul-05 13:28N 54°02' E 008°12'0 0.0
2015-Jul-05 12:31N 54°02' E 008°12'0 0.0
2015-Jul-05 11:31N 54°02' E 008°12'0 0.0
2015-Jul-05 10:31N 54°02' E 008°12'0 0.0
2015-Jul-05 09:28N 54°02' E 008°12'0 0.1
2015-Jul-05 08:31N 54°02' E 008°12'0 0.0
2015-Jul-05 07:31N 54°02' E 008°12'0 0.0
2015-Jul-05 06:31N 54°02' E 008°12'0 0.0
2015-Jul-05 05:31N 54°02' E 008°12'0 0.0
2015-Jul-05 04:31N 54°02' E 008°12'0 0.0
2015-Jul-05 03:28N 54°02' E 008°12'0 0.0
2015-Jul-05 02:31N 54°02' E 008°12'0 0.0
2015-Jul-05 01:31N 54°02' E 008°12'0 0.1
2015-Jul-05 00:31N 54°02' E 008°12'5 5.6
2015-Jul-04 23:33N 53°60' E 008°20'1010.5
2015-Jul-04 22:33N 53°57' E 008°37'1211.6
2015-Jul-04 21:33N 53°51' E 008°53'1414.0
2015-Jul-04 20:34N 53°52' E 009°17'1515.2
2015-Jul-04 19:33N 53°40' E 009°31'1413.8
2015-Jul-04 18:34N 53°33' E 009°51'5 4.7
2015-Jul-04 17:31N 53°32' E 009°59'0 0.0
2015-Jul-04 16:31N 53°32' E 009°59'0 0.0
2015-Jul-04 15:31N 53°32' E 009°59'0 0.0
2015-Jul-04 14:31N 53°32' E 009°59'0 0.0
2015-Jul-04 13:31N 53°32' E 009°59'0 0.0
2015-Jul-04 12:31N 53°32' E 009°59'0 0.0
2015-Jul-04 11:31N 53°32' E 009°59'0 0.0
2015-Jul-04 10:31N 53°32' E 009°59'0 0.0
2015-Jul-04 09:25N 53°32' E 009°59'0 0.0
2015-Jul-04 08:26N 53°32' E 009°59'0 0.0
2015-Jul-04 06:29N 53°32' E 009°59'0 0.0
2015-Jul-03 21:33N 53°32' E 009°59'6 5.8
2015-Jul-03 20:33N 53°33' E 009°50'1010.1
2015-Jul-03 19:33N 53°37' E 009°34'7 6.9
2015-Jul-03 18:34N 53°43' E 009°29'10 9.9
2015-Jul-03 17:33N 53°51' E 009°19'6 6.5
2015-Jul-03 16:33N 53°54' E 009°09'5 5.1
2015-Jul-03 15:33N 53°57' E 009°15'9 8.5
2015-Jul-03 14:33N 54°05' E 009°20'7 6.5
2015-Jul-03 13:31N 54°11' E 009°27'18 6.0
2015-Jul-03 10:33N 54°22' E 009°51'6 5.5
2015-Jul-03 09:33N 54°21' E 010°00'5 4.8
2015-Jul-03 08:33N 54°22' E 010°08'4 4.2
2015-Jul-03 07:33N 54°25' E 010°13'1211.8
2015-Jul-03 06:33N 54°33' E 010°29'1312.9
2015-Jul-03 05:33N 54°35' E 010°51'1413.9
2015-Jul-03 04:33N 54°35' E 011°14'1413.9
2015-Jul-03 03:33N 54°29' E 011°36'1313.3
2015-Jul-03 02:33N 54°27' E 011°59'1111.4
2015-Jul-03 01:33N 54°35' E 012°13'1312.7
2015-Jul-03 00:33N 54°43' E 012°30'1313.4
2015-Jul-02 23:33N 54°49' E 012°50'1313.3
2015-Jul-02 22:33N 54°53' E 013°12'1313.3
2015-Jul-02 21:33N 54°58' E 013°34'1313.4
2015-Jul-02 20:33N 55°02' E 013°56'1312.8
2015-Jul-02 19:33N 55°10' E 014°13'1313.4
2015-Jul-02 18:33N 55°21' E 014°28'1313.2
2015-Jul-02 17:33N 55°30' E 014°45'1313.4
2015-Jul-02 16:33N 55°36' E 015°06'1413.5
2015-Jul-02 15:33N 55°43' E 015°26'1313.2
2015-Jul-02 14:33N 55°50' E 015°47'1313.2
2015-Jul-02 13:33N 55°56' E 016°07'1413.4
2015-Jul-02 12:33N 56°03' E 016°28'1313.1
2015-Jul-02 11:33N 56°12' E 016°45'1313.2
2015-Jul-02 10:33N 56°24' E 016°54'4213.2
2015-Jul-02 07:23N 57°03' E 017°22'1213.3
2015-Jul-02 06:30N 57°14' E 017°30'1213.2
2015-Jul-02 05:33N 57°26' E 017°38'7212.0
2015-Jul-01 23:33N 58°37' E 017°14'1313.0
2015-Jul-01 22:33N 58°37' E 016°49'1312.7
2015-Jul-01 21:33N 58°39' E 016°25'5 0.1
2015-Jun-30 03:33N 58°38' E 016°17'1111.1
2015-Jun-30 02:33N 58°38' E 016°38'56 1.2
2015-Jun-28 05:13N 57°54' E 017°43'913.4
2015-Jun-28 04:33N 57°45' E 017°45'1313.2
2015-Jun-28 03:33N 57°32' E 017°47'1312.9
2015-Jun-28 02:33N 57°19' E 017°42'1313.2
2015-Jun-28 01:33N 57°07' E 017°33'9312.6
2015-Jun-27 18:10N 55°49' E 016°00'813.1
2015-Jun-27 17:33N 55°46' E 015°48'1313.4
2015-Jun-27 16:33N 55°39' E 015°27'1313.4
2015-Jun-27 15:33N 55°33' E 015°06'1313.0
2015-Jun-27 14:33N 55°27' E 014°46'1312.9
2015-Jun-27 13:31N 55°18' E 014°29'1212.6
2015-Jun-27 12:33N 55°10' E 014°12'2713.0
2015-Jun-27 10:28N 55°12' E 013°25'1213.3
2015-Jun-27 09:33N 55°14' E 013°04'1313.1
2015-Jun-27 08:33N 55°17' E 012°42'1111.2
2015-Jun-27 07:33N 55°28' E 012°41'1111.0
2015-Jun-27 06:33N 55°39' E 012°41'1110.7
2015-Jun-27 05:33N 55°50' E 012°41'1111.2
2015-Jun-27 04:33N 56°01' E 012°40'1211.5
2015-Jun-27 03:33N 56°09' E 012°25'1313.2
2015-Jun-27 02:33N 56°17' E 012°05'1313.4
2015-Jun-27 01:33N 56°30' E 011°58'1313.3
2015-Jun-27 00:33N 56°42' E 011°53'1413.6
2015-Jun-26 23:33N 56°55' E 011°45'1313.2
2015-Jun-26 22:33N 57°08' E 011°36'1312.7
2015-Jun-26 21:33N 57°19' E 011°28'1211.9
2015-Jun-26 20:33N 57°30' E 011°16'1313.0
2015-Jun-26 19:34N 57°37' E 010°56'  

Dump ship's entire track history